Time;durP1;ratioP1;P1;durP2;ratioP2;P2;SDS_P1;SDS_P2;PMS_P1;PMS_P2;Temp;Humidity;BMP_temperature;BMP_pressure;BME280_temperature;BME280_humidity;BME280_pressure;Samples;Min_cycle;Max_cycle;Signal;HPM_P1;HPM_P2
2021/12/02 00:01:03;;;;;;;3.93;2.53;;;-4.50;99.90;;;;;;5018814;28;20731;-79
2021/12/02 00:03:29;;;;;;;1.87;1.77;;;-4.30;99.90;;;;;;5018138;28;20447;-79
2021/12/02 00:05:55;;;;;;;6.50;2.03;;;-4.70;99.90;;;;;;5018116;28;20229;-82
2021/12/02 00:08:21;;;;;;;3.97;2.43;;;-4.80;99.90;;;;;;5018851;28;20193;-79
2021/12/02 00:10:47;;;;;;;3.53;2.90;;;-4.40;99.90;;;;;;5018405;28;20250;-81
2021/12/02 00:13:14;;;;;;;4.53;2.90;;;-4.60;99.90;;;;;;5034262;28;20524;-84
2021/12/02 00:15:53;;;;;;;4.27;3.07;;;-4.60;99.90;;;;;;5019113;28;20480;-78
2021/12/02 00:18:41;;;;;;;3.77;3.47;;;-5.00;99.90;;;;;;5019024;28;20413;-77
2021/12/02 00:21:06;;;;;;;5.53;3.07;;;-4.90;99.90;;;;;;5018604;28;20462;-78
2021/12/02 00:23:36;;;;;;;4.80;2.77;;;-4.60;99.90;;;;;;5036203;28;20408;-80
2021/12/02 00:26:08;;;;;;;2.47;2.27;;;-5.00;99.90;;;;;;5019745;28;20408;-82
2021/12/02 00:28:37;;;;;;;8.53;2.90;;;-4.70;99.90;;;;;;5017570;28;20412;-79
2021/12/02 00:31:03;;;;;;;4.80;2.70;;;-4.80;99.90;;;;;;5017086;28;20414;-79
2021/12/02 00:33:31;;;;;;;3.70;2.40;;;-5.40;99.90;;;;;;5034585;28;20463;-80
2021/12/02 00:35:57;;;;;;;4.33;2.23;;;-6.20;99.90;;;;;;5018958;28;20191;-77
2021/12/02 00:38:25;;;;;;;5.10;2.53;;;-5.90;99.90;;;;;;5020359;28;20419;-82
2021/12/02 00:40:52;;;;;;;4.60;1.93;;;-6.60;99.90;;;;;;5019656;28;20915;-81
2021/12/02 00:43:19;;;;;;;5.20;2.10;;;-6.00;99.90;;;;;;5019429;28;20413;-78
2021/12/02 00:45:46;;;;;;;4.90;2.10;;;-5.50;99.90;;;;;;5020144;28;20405;-78
2021/12/02 00:48:13;;;;;;;3.47;1.77;;;-5.80;99.90;;;;;;5021462;28;20418;-83
2021/12/02 00:50:48;;;;;;;2.83;2.13;;;-5.80;99.90;;;;;;5018913;28;20745;-80
2021/12/02 00:53:17;;;;;;;3.63;2.20;;;-6.40;99.90;;;;;;5021349;28;20507;-81
2021/12/02 00:55:44;;;;;;;5.43;1.90;;;-6.70;99.90;;;;;;5019979;28;20405;-78
2021/12/02 00:58:15;;;;;;;9.23;2.07;;;-6.40;99.90;;;;;;5021210;28;20793;-80
2021/12/02 01:00:41;;;;;;;4.47;2.10;;;-6.40;99.90;;;;;;5019007;28;20493;-78
2021/12/02 01:03:08;;;;;;;6.67;2.63;;;-6.40;99.90;;;;;;5019938;28;20459;-76
2021/12/02 01:05:34;;;;;;;9.73;2.37;;;-6.50;99.90;;;;;;5034475;28;20407;-76
2021/12/02 01:08:01;;;;;;;7.20;2.70;;;-6.20;99.90;;;;;;5019165;28;20400;-78
2021/12/02 01:10:27;;;;;;;9.60;2.60;;;-6.20;99.90;;;;;;5019205;28;20399;-79
2021/12/02 01:12:53;;;;;;;8.93;2.53;;;-6.40;99.90;;;;;;5019856;28;20446;-79
2021/12/02 01:15:20;;;;;;;8.23;1.90;;;-5.90;99.90;;;;;;5020119;28;20481;-81
2021/12/02 01:17:46;;;;;;;4.53;1.90;;;-5.60;99.90;;;;;;5037841;28;20502;-80
2021/12/02 01:20:12;;;;;;;9.03;2.00;;;-5.50;99.90;;;;;;5020526;28;20429;-79
2021/12/02 01:22:39;;;;;;;10.70;2.10;;;-5.80;99.90;;;;;;5021173;28;20173;-84
2021/12/02 01:25:08;;;;;;;7.93;3.03;;;-5.90;99.90;;;;;;5021404;28;20406;-81
2021/12/02 01:27:35;;;;;;;7.27;1.73;;;-6.30;99.90;;;;;;5020116;28;20499;-76
2021/12/02 01:30:04;;;;;;;9.47;2.77;;;-6.40;99.90;;;;;;5020248;28;20399;-83
2021/12/02 01:32:33;;;;;;;12.47;3.27;;;-6.50;99.90;;;;;;5022277;28;20500;-84
2021/12/02 01:35:03;;;;;;;9.97;3.10;;;-6.60;99.90;;;;;;5019774;28;20422;-75
2021/12/02 01:37:29;;;;;;;11.20;2.63;;;-6.60;99.90;;;;;;5017088;28;20449;-76
2021/12/02 01:39:57;;;;;;;8.43;2.90;;;-6.30;99.90;;;;;;5016690;28;20417;-75
2021/12/02 01:42:24;;;;;;;7.37;1.93;;;-6.20;99.90;;;;;;5016358;28;20399;-75
2021/12/02 01:44:57;;;;;;;7.23;3.03;;;-6.20;99.90;;;;;;5016578;28;20455;-75
2021/12/02 01:47:25;;;;;;;8.53;1.70;;;-6.30;99.90;;;;;;5016553;28;20399;-76
2021/12/02 01:49:56;;;;;;;7.43;2.10;;;-6.80;99.90;;;;;;5016100;28;20424;-76
2021/12/02 01:52:27;;;;;;;12.80;2.43;;;-6.60;99.90;;;;;;5015369;28;20440;-76
2021/12/02 01:55:05;;;;;;;9.90;2.40;;;-6.10;99.90;;;;;;5016169;28;20429;-76
2021/12/02 01:57:35;;;;;;;5.77;2.77;;;-6.80;99.90;;;;;;5016037;28;20503;-76
2021/12/02 02:00:17;;;;;;;6.33;1.63;;;-6.60;99.90;;;;;;5016111;28;20375;-76
2021/12/02 02:02:43;;;;;;;11.83;1.93;;;-5.80;99.90;;;;;;5016047;28;20453;-75
2021/12/02 02:05:12;;;;;;;3.73;1.53;;;-5.90;99.90;;;;;;5016285;28;20387;-74
2021/12/02 02:07:59;;;;;;;3.93;2.13;;;-6.20;99.90;;;;;;5016289;28;20165;-74
2021/12/02 02:10:27;;;;;;;5.37;2.40;;;-6.70;99.90;;;;;;5017776;28;20412;-82
2021/12/02 02:12:58;;;;;;;8.73;2.87;;;-5.90;99.90;;;;;;5021445;28;20437;-80
2021/12/02 02:15:24;;;;;;;5.97;1.77;;;-6.30;99.90;;;;;;5020129;28;20415;-80
2021/12/02 02:18:00;;;;;;;3.23;1.10;;;-6.50;99.90;;;;;;5018340;28;20410;-81
2021/12/02 02:23:19;;;;;;;3.93;1.73;;;-6.80;99.90;;;;;;5018134;28;20422;-81
2021/12/02 02:25:46;;;;;;;5.70;1.60;;;-6.40;99.90;;;;;;5016636;28;20419;-79
2021/12/02 02:28:13;;;;;;;1.80;1.27;;;-6.30;99.90;;;;;;5017589;28;20596;-81
2021/12/02 02:30:39;;;;;;;7.77;3.53;;;-7.70;99.90;;;;;;5017953;28;20430;-83
2021/12/02 02:33:05;;;;;;;2.67;1.70;;;-7.20;99.90;;;;;;5016413;28;20447;-79
2021/12/02 02:35:31;;;;;;;5.63;1.53;;;-7.50;99.90;;;;;;5018029;28;20418;-76
2021/12/02 02:37:59;;;;;;;4.97;2.47;;;-7.30;99.90;;;;;;5021322;28;20181;-78
2021/12/02 02:40:26;;;;;;;5.70;2.27;;;-6.90;99.90;;;;;;5021202;28;20624;-80
2021/12/02 02:42:58;;;;;;;7.63;2.23;;;-6.80;99.90;;;;;;5021277;28;20403;-82
2021/12/02 02:45:24;;;;;;;6.33;2.67;;;-6.70;99.90;;;;;;5021201;28;20398;-79
2021/12/02 02:47:50;;;;;;;5.37;2.67;;;-7.00;99.90;;;;;;5020147;28;20410;-80
2021/12/02 02:50:17;;;;;;;4.03;2.03;;;-6.70;99.90;;;;;;5021100;28;20414;-82
2021/12/02 02:52:45;;;;;;;5.97;2.40;;;-6.90;99.90;;;;;;5020349;28;20256;-83
2021/12/02 02:55:15;;;;;;;4.73;1.40;;;-6.60;99.90;;;;;;5021357;28;20433;-82
2021/12/02 02:57:49;;;;;;;5.60;1.57;;;-6.40;99.90;;;;;;5021613;28;20413;-79
2021/12/02 03:00:21;;;;;;;5.30;1.57;;;-6.40;99.90;;;;;;5019846;28;20429;-82
2021/12/02 03:03:17;;;;;;;5.47;1.20;;;-6.70;99.90;;;;;;5021744;28;20403;-81
2021/12/02 03:08:37;;;;;;;3.70;1.00;;;-7.10;99.90;;;;;;5021030;28;20549;-81
2021/12/02 03:11:04;;;;;;;4.80;1.47;;;-6.80;99.90;;;;;;5035590;28;20510;-81
2021/12/02 03:13:39;;;;;;;3.20;0.70;;;-7.80;99.90;;;;;;5020605;28;20450;-79
2021/12/02 03:18:52;;;;;;;5.03;1.40;;;-7.40;99.90;;;;;;5020225;28;20853;-74
2021/12/02 03:21:23;;;;;;;5.80;1.27;;;-7.60;99.90;;;;;;5019778;28;20503;-76
2021/12/02 03:23:54;;;;;;;6.33;0.83;;;-6.90;99.90;;;;;;5019388;28;20402;-76
2021/12/02 03:26:21;;;;;;;1.37;0.90;;;-7.40;99.90;;;;;;5019308;28;20399;-78
2021/12/02 03:28:48;;;;;;;1.70;0.57;;;-6.70;99.90;;;;;;5035314;28;20422;-77
2021/12/02 03:31:14;;;;;;;3.87;1.40;;;-4.90;99.90;;;;;;5019295;28;20410;-74
2021/12/02 03:33:41;;;;;;;4.53;1.00;;;-6.80;99.90;;;;;;5019296;28;20904;-75
2021/12/02 03:36:08;;;;;;;2.03;1.07;;;-4.40;99.90;;;;;;5019252;28;20465;-79
2021/12/02 03:38:34;;;;;;;8.23;1.17;;;-4.30;99.90;;;;;;5018833;28;20407;-79
2021/12/02 03:41:01;;;;;;;3.60;1.20;;;-5.50;99.90;;;;;;5018769;28;20713;-76
2021/12/02 03:43:33;;;;;;;4.83;2.00;;;-6.40;99.90;;;;;;5019234;28;20172;-76
2021/12/02 03:45:58;;;;;;;2.33;1.07;;;-6.40;99.90;;;;;;5018989;28;20854;-77
2021/12/02 03:48:24;;;;;;;4.27;1.27;;;-5.10;99.90;;;;;;5018328;28;20423;-76
2021/12/02 03:50:50;;;;;;;7.47;2.60;;;-5.90;99.90;;;;;;5018520;28;20201;-78
2021/12/02 03:53:16;;;;;;;3.90;1.37;;;-7.30;99.90;;;;;;5018696;28;20272;-77
2021/12/02 03:55:42;;;;;;;6.27;2.27;;;-6.70;99.90;;;;;;5018996;28;20177;-79
2021/12/02 03:58:07;;;;;;;3.17;1.77;;;-5.00;99.90;;;;;;5018771;28;20157;-76
2021/12/02 04:00:33;;;;;;;10.03;2.20;;;-6.50;99.90;;;;;;5018259;28;20165;-75
2021/12/02 04:02:59;;;;;;;5.47;2.50;;;-6.50;99.90;;;;;;5017219;28;20184;-80
2021/12/02 04:05:25;;;;;;;12.83;2.40;;;-4.30;99.90;;;;;;5018295;28;20201;-79
2021/12/02 04:07:51;;;;;;;8.70;2.73;;;-7.20;99.90;;;;;;5018122;28;20169;-75
2021/12/02 04:10:17;;;;;;;10.07;3.07;;;-7.40;99.90;;;;;;5018134;28;20188;-76
2021/12/02 04:12:50;;;;;;;14.63;4.63;;;-8.00;99.90;;;;;;5017843;28;20174;-75
2021/12/02 04:15:54;;;;;;;7.23;3.07;;;-6.70;99.90;;;;;;5017837;28;20399;-75
2021/12/02 04:18:09;;;;;;;3.03;1.73;;;-8.60;99.90;;;;;;5019650;28;20430;-79
2021/12/02 04:20:37;;;;;;;5.23;2.33;;;-7.90;99.90;;;;;;5017945;28;20434;-79
2021/12/02 04:23:03;;;;;;;8.50;3.63;;;-7.20;99.90;;;;;;5018323;28;20481;-80
2021/12/02 04:25:30;;;;;;;5.27;2.30;;;-7.70;99.90;;;;;;5017626;28;20773;-75
2021/12/02 04:27:55;;;;;;;3.00;2.10;;;-8.20;99.90;;;;;;5017854;28;20431;-75
2021/12/02 04:30:26;;;;;;;6.80;1.80;;;-6.70;99.90;;;;;;5017674;28;20442;-76
2021/12/02 04:32:54;;;;;;;4.73;2.03;;;-8.00;99.90;;;;;;5017776;28;20251;-81
2021/12/02 04:35:20;;;;;;;6.23;2.77;;;-7.80;99.90;;;;;;5017563;28;20850;-81
2021/12/02 04:37:48;;;;;;;7.50;3.50;;;-7.50;99.90;;;;;;5016655;28;20435;-76
2021/12/02 04:40:16;;;;;;;6.47;3.47;;;-5.30;99.90;;;;;;5018281;28;20426;-77
2021/12/02 04:42:42;;;;;;;6.17;3.07;;;-5.10;99.90;;;;;;5018345;28;20681;-78
2021/12/02 04:45:09;;;;;;;9.47;3.90;;;-7.10;99.90;;;;;;5017799;28;20395;-75
2021/12/02 04:47:35;;;;;;;12.77;4.37;;;-7.10;99.90;;;;;;5017548;28;20448;-75
2021/12/02 04:50:01;;;;;;;7.17;3.20;;;-6.10;99.90;;;;;;5017203;28;20502;-75
2021/12/02 04:52:27;;;;;;;8.10;2.77;;;-6.80;99.90;;;;;;5016767;28;20177;-73
2021/12/02 04:54:53;;;;;;;5.87;2.03;;;-6.90;99.90;;;;;;5016013;28;20451;-73
2021/12/02 04:57:20;;;;;;;3.60;1.60;;;-6.70;99.90;;;;;;5016871;28;20197;-74
2021/12/02 04:59:46;;;;;;;2.67;0.90;;;-7.00;99.90;;;;;;5015781;28;20421;-73
2021/12/02 05:02:12;;;;;;;3.20;0.77;;;-5.40;99.90;;;;;;5016950;28;20596;-73
2021/12/02 05:04:38;;;;;;;1.20;0.83;;;-8.30;99.90;;;;;;5017433;28;20201;-74
2021/12/02 05:07:04;;;;;;;1.43;0.80;;;-8.20;99.90;;;;;;5015917;28;20893;-73
2021/12/02 05:09:29;;;;;;;2.73;0.97;;;-7.10;99.90;;;;;;5017534;28;20181;-73
2021/12/02 05:11:55;;;;;;;3.80;0.90;;;-5.50;99.90;;;;;;5016790;28;20414;-74
2021/12/02 05:14:21;;;;;;;1.13;0.50;;;-6.30;99.90;;;;;;5016659;28;20209;-73
2021/12/02 05:16:47;;;;;;;1.90;1.20;;;-6.00;99.90;;;;;;5015626;28;20227;-75
2021/12/02 05:19:13;;;;;;;2.10;1.30;;;-7.70;99.90;;;;;;5016658;28;20219;-73
2021/12/02 05:21:39;;;;;;;2.93;1.13;;;-7.70;99.90;;;;;;5016250;28;20726;-73
2021/12/02 05:24:05;;;;;;;6.60;1.73;;;-7.80;99.90;;;;;;5016834;28;20173;-74
2021/12/02 05:26:31;;;;;;;3.57;1.67;;;-5.10;99.90;;;;;;5016623;28;20490;-74
2021/12/02 05:28:57;;;;;;;10.17;2.43;;;-6.90;99.90;;;;;;5016784;28;20493;-73
2021/12/02 05:31:23;;;;;;;5.23;2.20;;;-4.50;99.90;;;;;;5016522;28;20831;-74
2021/12/02 05:33:49;;;;;;;5.80;1.40;;;-5.00;99.90;;;;;;5016401;28;20205;-74
2021/12/02 05:36:15;;;;;;;4.10;1.60;;;-6.30;99.90;;;;;;5016698;28;20510;-80
2021/12/02 05:38:41;;;;;;;2.03;1.07;;;-6.30;99.90;;;;;;5017060;28;20209;-78
2021/12/02 05:41:07;;;;;;;6.77;0.80;;;-7.10;99.90;;;;;;5016819;28;20178;-77
2021/12/02 05:43:33;;;;;;;2.27;0.40;;;-5.40;99.90;;;;;;5016585;28;20177;-79
2021/12/02 05:45:59;;;;;;;2.13;0.50;;;-8.50;99.90;;;;;;5016645;28;20407;-74
2021/12/02 05:48:24;;;;;;;2.80;0.90;;;-9.00;99.90;;;;;;5015976;28;20429;-78
2021/12/02 05:50:51;;;;;;;0.30;0.30;;;-8.30;99.90;;;;;;5015809;28;20200;-77
2021/12/02 05:53:18;;;;;;;4.23;1.63;;;-8.50;99.90;;;;;;5016742;28;20260;-78
2021/12/02 05:55:44;;;;;;;2.40;0.80;;;-6.20;99.90;;;;;;5016838;28;20410;-77
2021/12/02 05:58:14;;;;;;;2.60;1.20;;;-8.10;99.90;;;;;;5016803;28;20402;-74
2021/12/02 06:00:40;;;;;;;4.43;1.23;;;-7.30;99.90;;;;;;5016372;28;20465;-79
2021/12/02 06:03:07;;;;;;;1.50;1.40;;;-5.90;99.90;;;;;;5015598;28;20441;-77
2021/12/02 06:05:33;;;;;;;3.63;1.60;;;-7.40;99.90;;;;;;5016906;28;20406;-77
2021/12/02 06:08:02;;;;;;;2.27;1.70;;;-7.50;99.90;;;;;;5016916;28;20410;-80
2021/12/02 06:10:29;;;;;;;3.27;2.63;;;-5.40;99.90;;;;;;5016980;28;20425;-78
2021/12/02 06:12:56;;;;;;;4.73;1.43;;;-5.40;99.90;;;;;;5020660;28;20881;-79
2021/12/02 06:15:22;;;;;;;2.23;1.00;;;-4.50;99.90;;;;;;5022111;28;20426;-82
2021/12/02 06:17:48;;;;;;;9.30;2.33;;;-7.60;99.90;;;;;;5022037;28;20710;-83
2021/12/02 06:20:17;;;;;;;4.90;1.33;;;-6.70;99.90;;;;;;5022432;28;20411;-75
2021/12/02 06:22:44;;;;;;;6.60;3.27;;;-8.10;99.90;;;;;;5036119;28;20418;-77
2021/12/02 06:27:44;;;;;;;4.60;2.17;;;-7.80;99.90;;;;;;5020616;28;20712;-77
2021/12/02 06:30:12;;;;;;;5.93;3.07;;;-7.30;99.90;;;;;;5019362;28;20410;-79
2021/12/02 06:32:37;;;;;;;7.53;3.40;;;-7.50;99.90;;;;;;5019161;28;20453;-79
2021/12/02 06:35:04;;;;;;;9.57;3.90;;;-5.30;99.90;;;;;;5020283;28;20423;-78
2021/12/02 06:37:30;;;;;;;9.13;3.60;;;-7.50;99.90;;;;;;5020665;28;20181;-79
2021/12/02 06:39:56;;;;;;;13.00;4.77;;;-5.40;99.90;;;;;;5020782;28;20414;-80
2021/12/02 06:42:22;;;;;;;13.07;4.40;;;-6.90;99.90;;;;;;5020100;28;20173;-78
2021/12/02 06:44:47;;;;;;;13.23;4.73;;;-4.90;99.90;;;;;;5020390;28;20442;-82
2021/12/02 06:47:14;;;;;;;9.93;3.37;;;-8.20;99.90;;;;;;5020128;28;20174;-79
2021/12/02 06:49:40;;;;;;;9.60;4.23;;;-8.50;99.90;;;;;;5019874;28;20185;-76
2021/12/02 06:52:12;;;;;;;6.57;3.33;;;-7.80;99.90;;;;;;5020366;28;20837;-79
2021/12/02 06:54:38;;;;;;;8.80;3.43;;;-4.40;99.90;;;;;;5019981;28;20465;-76
2021/12/02 06:57:06;;;;;;;6.37;4.23;;;-5.10;99.90;;;;;;5020433;28;20897;-82
2021/12/02 06:59:32;;;;;;;7.97;4.87;;;-8.00;99.90;;;;;;5019764;28;20435;-78
2021/12/02 07:01:59;;;;;;;5.77;3.60;;;-7.50;99.90;;;;;;5040717;28;20397;-77
2021/12/02 07:04:26;;;;;;;6.23;3.23;;;-7.60;99.90;;;;;;5044278;28;20432;-95
2021/12/02 07:06:52;;;;;;;10.50;3.30;;;-8.00;99.90;;;;;;5040379;28;20447;-85
2021/12/02 07:09:18;;;;;;;8.33;4.03;;;-7.80;99.90;;;;;;5040991;28;20465;-84
2021/12/02 07:11:44;;;;;;;10.10;3.70;;;-8.10;99.90;;;;;;5043632;28;20178;-80
2021/12/02 07:14:15;;;;;;;9.13;2.77;;;-6.80;99.90;;;;;;5039094;28;20444;-82
2021/12/02 07:16:42;;;;;;;5.30;2.00;;;-4.60;99.90;;;;;;5036767;28;20184;-83
2021/12/02 07:19:09;;;;;;;4.43;2.23;;;-4.60;99.90;;;;;;5036133;28;20406;-81
2021/12/02 07:21:38;;;;;;;4.97;1.60;;;-4.90;99.90;;;;;;5037282;28;20409;-73
2021/12/02 07:24:09;;;;;;;4.80;1.80;;;-7.30;99.90;;;;;;5036878;28;20507;-72
2021/12/02 07:26:41;;;;;;;7.57;2.77;;;-7.50;99.90;;;;;;5024916;28;20418;-72
2021/12/02 07:29:15;;;;;;;3.67;2.23;;;-7.30;99.90;;;;;;5030768;28;20413;-71
2021/12/02 07:31:44;;;;;;;6.87;1.87;;;-7.80;99.90;;;;;;5036712;28;20409;-74
2021/12/02 07:36:45;;;;;;;3.10;1.47;;;-9.10;99.90;;;;;;5091713;27;20555;-72
2021/12/02 07:39:11;;;;;;;3.60;0.93;;;-9.70;99.90;;;;;;5073375;28;20463;-85
2021/12/02 07:41:40;;;;;;;2.13;1.93;;;-9.60;99.90;;;;;;5075796;28;20455;-82
2021/12/02 07:44:06;;;;;;;1.53;1.20;;;-7.00;99.90;;;;;;5094354;28;20698;-78
2021/12/02 07:46:33;;;;;;;3.10;1.53;;;-8.40;99.90;;;;;;5076220;28;20443;-80
2021/12/02 07:48:59;;;;;;;2.63;1.20;;;-7.90;99.90;;;;;;5085924;28;21030;-78
2021/12/02 07:51:29;;;;;;;5.40;1.37;;;-9.10;99.90;;;;;;5065479;28;20840;-72
2021/12/02 07:53:58;;;;;;;3.00;1.27;;;-9.60;99.90;;;;;;5091570;28;20487;-72
2021/12/02 07:56:24;;;;;;;7.07;2.00;;;-10.00;99.90;;;;;;5093443;28;20536;-72
2021/12/02 07:58:50;;;;;;;1.77;1.50;;;-9.00;99.90;;;;;;5091128;28;20490;-73
2021/12/02 08:01:17;;;;;;;1.77;1.67;;;-7.60;99.90;;;;;;5082188;28;20420;-72
2021/12/02 08:03:44;;;;;;;6.13;2.13;;;-9.00;99.90;;;;;;5091678;28;20388;-72
2021/12/02 08:06:12;;;;;;;1.63;1.53;;;-8.80;99.90;;;;;;5090728;28;20433;-73
2021/12/02 08:08:38;;;;;;;3.57;1.50;;;-8.70;99.90;;;;;;5092258;28;20699;-73
2021/12/02 08:11:08;;;;;;;3.67;1.27;;;-6.70;99.90;;;;;;5091608;28;20408;-73
2021/12/02 08:13:35;;;;;;;4.30;1.23;;;-8.60;99.90;;;;;;5091264;28;20398;-77
2021/12/02 08:16:02;;;;;;;9.93;1.83;;;-8.30;99.90;;;;;;5073780;28;20482;-75
2021/12/02 08:18:28;;;;;;;2.47;1.27;;;-8.00;99.90;;;;;;5092213;28;20393;-76
2021/12/02 08:20:55;;;;;;;2.47;1.20;;;-8.10;99.90;;;;;;5090602;28;20438;-74
2021/12/02 08:23:21;;;;;;;1.47;1.13;;;-6.60;99.90;;;;;;5091834;28;20780;-74
2021/12/02 08:25:48;;;;;;;1.53;1.43;;;-5.20;99.90;;;;;;5096628;28;20406;-76
2021/12/02 08:28:14;;;;;;;1.63;1.47;;;-6.20;99.90;;;;;;5091130;28;20401;-74
2021/12/02 08:30:40;;;;;;;6.03;1.50;;;-8.00;99.90;;;;;;5091109;28;20850;-75
2021/12/02 08:33:07;;;;;;;2.00;1.80;;;-5.80;99.90;;;;;;5091608;28;20401;-76
2021/12/02 08:35:34;;;;;;;2.80;1.77;;;-5.30;99.90;;;;;;5090824;28;20209;-76
2021/12/02 08:38:05;;;;;;;2.03;1.93;;;-7.30;99.90;;;;;;5073602;28;20407;-75
2021/12/02 08:40:32;;;;;;;5.67;2.23;;;-7.30;99.90;;;;;;5091130;28;20824;-74
2021/12/02 08:43:00;;;;;;;6.87;3.90;;;-7.30;99.90;;;;;;5073384;28;20401;-76
2021/12/02 08:45:27;;;;;;;9.30;4.23;;;-5.60;99.90;;;;;;5072962;28;20846;-73
2021/12/02 08:47:58;;;;;;;11.77;4.00;;;-7.80;99.90;;;;;;5078680;28;20453;-74
2021/12/02 08:50:24;;;;;;;5.50;3.67;;;-5.40;99.90;;;;;;5059937;28;20410;-75
2021/12/02 08:52:52;;;;;;;7.43;3.43;;;-6.40;99.90;;;;;;5078012;28;20397;-74
2021/12/02 08:55:21;;;;;;;7.43;3.00;;;-9.00;99.90;;;;;;5078308;28;20456;-77
2021/12/02 08:57:49;;;;;;;9.23;3.50;;;-6.40;99.90;;;;;;5077467;28;20686;-74
2021/12/02 09:00:19;;;;;;;6.07;2.73;;;-6.10;99.90;;;;;;5077852;28;20406;-76
2021/12/02 09:02:46;;;;;;;4.67;3.13;;;-8.00;99.90;;;;;;5076970;28;20402;-73
2021/12/02 09:05:12;;;;;;;5.27;2.73;;;-5.90;99.90;;;;;;5060025;28;20438;-74
2021/12/02 09:07:38;;;;;;;6.60;3.13;;;-7.30;99.90;;;;;;5077408;28;20414;-74
2021/12/02 09:10:07;;;;;;;4.83;3.03;;;-8.40;99.90;;;;;;5076680;28;20415;-75
2021/12/02 09:12:34;;;;;;;5.07;4.17;;;-8.70;99.90;;;;;;5077596;28;20185;-77
2021/12/02 09:15:01;;;;;;;9.17;3.63;;;-10.10;99.90;;;;;;5077424;28;20442;-75
2021/12/02 09:17:28;;;;;;;6.57;3.87;;;-8.10;99.90;;;;;;5059217;28;20416;-77
2021/12/02 09:19:54;;;;;;;12.70;4.83;;;-6.70;99.90;;;;;;5077340;28;20488;-79
2021/12/02 09:22:19;;;;;;;7.97;4.03;;;-8.30;99.90;;;;;;5076963;28;20783;-77
2021/12/02 09:24:45;;;;;;;5.83;4.20;;;-5.70;99.90;;;;;;5064746;28;20196;-76
2021/12/02 09:27:11;;;;;;;10.07;4.30;;;-5.60;99.90;;;;;;5060392;28;20272;-74
2021/12/02 09:29:37;;;;;;;10.03;5.23;;;-5.20;99.90;;;;;;5076026;28;20182;-74
2021/12/02 09:32:04;;;;;;;13.23;6.67;;;-4.80;99.90;;;;;;5076651;28;20413;-76
2021/12/02 09:34:30;;;;;;;13.27;5.47;;;-7.20;99.90;;;;;;5076987;28;20178;-74
2021/12/02 09:36:57;;;;;;;11.57;4.77;;;-7.10;99.90;;;;;;5058867;28;20439;-75
2021/12/02 09:39:30;;;;;;;13.13;6.23;;;-7.30;99.90;;;;;;5076440;28;20481;-73
2021/12/02 09:41:56;;;;;;;12.63;5.40;;;-6.60;99.90;;;;;;5076104;28;20481;-73
2021/12/02 09:44:22;;;;;;;6.13;5.40;;;-5.50;99.90;;;;;;5058993;28;20404;-75
2021/12/02 09:46:48;;;;;;;17.00;5.77;;;-6.30;99.90;;;;;;5076951;28;20403;-72
2021/12/02 09:49:15;;;;;;;11.23;5.23;;;-5.70;99.90;;;;;;5076176;28;20225;-73
2021/12/02 09:54:18;;;;;;;8.17;3.63;;;-6.50;99.90;;;;;;5077140;28;20408;-73
2021/12/02 09:56:48;;;;;;;5.40;3.27;;;-8.40;99.90;;;;;;5081510;28;20436;-73
2021/12/02 10:01:59;;;;;;;5.63;2.80;;;-6.60;99.90;;;;;;5076372;28;20404;-73
2021/12/02 10:04:27;;;;;;;7.33;2.80;;;-8.00;99.90;;;;;;5076222;28;20396;-72
2021/12/02 10:10:29;;;;;;;9.20;3.03;;;-8.10;99.90;;;;;;5075978;28;20415;-74
2021/12/02 10:13:43;;;;;;;6.70;3.17;;;-5.90;99.90;;;;;;5058093;28;20408;-72
2021/12/02 10:16:12;;;;;;;3.70;2.57;;;-8.40;99.90;;;;;;5075577;28;20443;-72
2021/12/02 10:21:43;;;;;;;8.07;4.13;;;-8.20;99.90;;;;;;5076310;28;21111;-74
2021/12/02 10:24:16;;;;;;;9.10;2.73;;;-9.00;99.90;;;;;;5076462;28;20428;-73
2021/12/02 10:26:46;;;;;;;5.77;2.07;;;-6.20;99.90;;;;;;5057912;28;20416;-75
2021/12/02 10:29:15;;;;;;;7.77;2.10;;;-8.40;99.90;;;;;;5076072;28;20403;-71
2021/12/02 10:31:46;;;;;;;5.03;3.83;;;-8.00;99.90;;;;;;5075512;28;20411;-73
2021/12/02 10:34:14;;;;;;;4.97;1.83;;;-8.60;99.90;;;;;;5053800;28;20438;-74
2021/12/02 10:36:43;;;;;;;4.07;2.20;;;-9.00;99.90;;;;;;5075724;28;20774;-79
2021/12/02 10:39:11;;;;;;;1.80;1.40;;;-9.40;99.90;;;;;;5075609;28;20496;-75
2021/12/02 10:41:41;;;;;;;7.97;2.50;;;-8.20;99.90;;;;;;5075943;28;20402;-78
2021/12/02 10:44:12;;;;;;;2.07;1.80;;;-8.60;99.90;;;;;;5076308;28;20678;-77
2021/12/02 10:46:57;;;;;;;3.87;1.83;;;-7.90;99.90;;;;;;5075665;28;20415;-78
2021/12/02 10:49:25;;;;;;;2.40;2.13;;;-8.30;99.90;;;;;;5076220;28;20402;-82
2021/12/02 10:51:56;;;;;;;1.93;1.70;;;-8.90;99.90;;;;;;5073129;28;20479;-73
2021/12/02 10:54:34;;;;;;;2.60;2.13;;;-6.30;99.90;;;;;;5058488;28;20465;-76
2021/12/02 10:57:13;;;;;;;6.33;2.60;;;-8.30;99.90;;;;;;5072534;28;20686;-73
2021/12/02 10:59:48;;;;;;;3.40;2.87;;;-7.80;99.90;;;;;;5090785;28;20429;-74
2021/12/02 11:02:28;;;;;;;7.53;3.17;;;-5.80;99.90;;;;;;5070988;28;20722;-75
2021/12/02 11:05:03;;;;;;;11.47;3.30;;;-8.00;99.90;;;;;;5057997;28;20789;-76
2021/12/02 11:07:31;;;;;;;6.93;3.20;;;-8.30;99.90;;;;;;5076795;28;20395;-73
2021/12/02 11:10:04;;;;;;;13.60;4.27;;;-8.00;99.90;;;;;;5077842;28;20749;-74
2021/12/02 11:12:35;;;;;;;4.30;2.97;;;-8.30;99.90;;;;;;5076248;28;20415;-76
2021/12/02 11:15:12;;;;;;;6.57;4.13;;;-8.40;99.90;;;;;;5075677;28;20445;-80
2021/12/02 11:17:50;;;;;;;3.33;3.10;;;-8.60;99.90;;;;;;5062345;28;20753;-75
2021/12/02 11:20:34;;;;;;;3.13;2.83;;;-7.80;99.90;;;;;;5075856;28;20448;-77
2021/12/02 11:23:03;;;;;;;4.57;3.07;;;-5.10;99.90;;;;;;5075206;28;20556;-76
2021/12/02 11:25:30;;;;;;;5.13;4.63;;;-5.60;99.90;;;;;;5057630;28;20432;-73
2021/12/02 11:27:57;;;;;;;8.20;4.23;;;-6.20;99.90;;;;;;5075552;28;20835;-74
2021/12/02 11:30:27;;;;;;;4.83;4.13;;;-7.30;99.90;;;;;;5075495;28;20458;-74
2021/12/02 11:32:57;;;;;;;4.80;4.40;;;-5.40;99.90;;;;;;5075174;28;20408;-74
2021/12/02 11:35:25;;;;;;;5.87;4.47;;;-7.10;99.90;;;;;;5074166;28;20468;-74
2021/12/02 11:38:07;;;;;;;6.20;5.50;;;-6.30;99.90;;;;;;5073899;28;20432;-74
2021/12/02 11:40:42;;;;;;;11.73;5.10;;;-5.90;99.90;;;;;;5074692;28;20416;-75
2021/12/02 11:43:10;;;;;;;6.27;4.50;;;-5.70;99.90;;;;;;5058127;28;20441;-77
2021/12/02 11:45:43;;;;;;;11.50;5.80;;;-7.10;99.90;;;;;;5075725;28;20435;-75
2021/12/02 11:48:12;;;;;;;8.40;3.87;;;-7.00;99.90;;;;;;5075290;28;20419;-77
2021/12/02 11:50:38;;;;;;;3.57;3.27;;;-7.40;99.90;;;;;;5075653;28;20714;-77
2021/12/02 11:53:04;;;;;;;3.07;2.87;;;-5.90;99.90;;;;;;5038618;28;20423;-76
2021/12/02 11:55:33;;;;;;;6.03;4.47;;;-4.70;99.90;;;;;;5069209;28;20234;-79
2021/12/02 11:58:00;;;;;;;4.03;3.63;;;-6.20;99.90;;;;;;5057279;28;20175;-77
2021/12/02 12:00:27;;;;;;;5.33;3.60;;;-5.20;99.90;;;;;;5076069;28;20741;-76
2021/12/02 12:03:03;;;;;;;7.23;3.90;;;-7.00;99.90;;;;;;5075641;28;20768;-78
2021/12/02 12:05:33;;;;;;;6.23;3.30;;;-7.40;99.90;;;;;;5074569;28;20781;-76
2021/12/02 12:08:00;;;;;;;10.83;3.80;;;-7.30;99.90;;;;;;5075523;28;20439;-77
2021/12/02 12:10:31;;;;;;;3.33;2.57;;;-5.70;99.90;;;;;;5057620;28;20704;-76
2021/12/02 12:13:15;;;;;;;3.97;2.43;;;-5.20;99.90;;;;;;5074775;28;20415;-75
2021/12/02 12:16:03;;;;;;;5.80;3.50;;;-6.20;99.90;;;;;;5057516;28;20459;-75
2021/12/02 12:18:32;;;;;;;6.67;3.07;;;-6.80;99.90;;;;;;5074334;28;20503;-80
2021/12/02 12:21:18;;;;;;;5.17;3.50;;;-6.80;99.90;;;;;;5045866;28;20416;-77
2021/12/02 12:24:00;;;;;;;4.17;3.77;;;-5.00;99.90;;;;;;5077674;28;20415;-76
2021/12/02 12:26:37;;;;;;;4.63;3.77;;;-6.90;99.90;;;;;;5077962;28;20831;-76
2021/12/02 12:29:09;;;;;;;6.30;2.67;;;-7.30;99.90;;;;;;5078546;28;20453;-79
2021/12/02 12:32:09;;;;;;;6.47;3.30;;;-7.80;99.90;;;;;;5060004;28;20499;-76
2021/12/02 12:34:52;;;;;;;6.70;3.20;;;-7.40;99.90;;;;;;5059984;28;20451;-77
2021/12/02 12:40:17;;;;;;;9.63;4.50;;;-6.80;99.90;;;;;;5078312;28;20411;-77
2021/12/02 12:43:02;;;;;;;6.03;4.33;;;-6.90;99.90;;;;;;5060494;28;20418;-76
2021/12/02 12:45:36;;;;;;;11.20;4.60;;;-7.40;99.90;;;;;;5059604;28;20958;-76
2021/12/02 12:48:05;;;;;;;5.43;3.43;;;-7.30;99.90;;;;;;5077565;28;20522;-80
2021/12/02 12:50:40;;;;;;;7.63;5.00;;;-8.70;99.90;;;;;;5060410;28;20420;-76
2021/12/02 12:53:07;;;;;;;7.03;4.07;;;-7.10;99.90;;;;;;5082528;28;20842;-75
2021/12/02 12:55:37;;;;;;;6.40;5.33;;;-5.40;99.90;;;;;;5060145;28;20493;-76
2021/12/02 12:58:17;;;;;;;4.10;3.80;;;-5.60;99.90;;;;;;5078212;28;20499;-75
2021/12/02 13:00:46;;;;;;;5.00;4.07;;;-7.50;99.90;;;;;;5059749;28;20423;-76
2021/12/02 13:03:26;;;;;;;14.07;6.93;;;-6.70;99.90;;;;;;5078587;28;20415;-83
2021/12/02 13:06:07;;;;;;;4.97;4.17;;;-7.70;99.90;;;;;;5077076;28;20428;-78
2021/12/02 13:08:44;;;;;;;4.67;4.13;;;-7.60;99.90;;;;;;5078514;28;20420;-82
2021/12/02 13:11:19;;;;;;;6.27;4.53;;;-7.20;99.90;;;;;;5062083;28;20424;-81
2021/12/02 13:13:47;;;;;;;6.87;5.57;;;-7.60;99.90;;;;;;5061175;28;20933;-81
2021/12/02 13:16:20;;;;;;;12.33;4.70;;;-6.10;99.90;;;;;;5061216;28;20824;-82
2021/12/02 13:18:51;;;;;;;4.90;4.03;;;-8.20;99.90;;;;;;5061229;28;20420;-80
2021/12/02 13:21:34;;;;;;;5.50;4.00;;;-6.20;99.90;;;;;;5079468;28;20490;-82
2021/12/02 13:24:12;;;;;;;4.37;3.93;;;-7.80;99.90;;;;;;5060833;28;20463;-79